Terminal Aerodrome Forecast
Issued by NWS Wilmington, OH

Current Version | Previous Version | Graphics & Text | Print | Product List | Glossary On
Versions: 1 2 3 4 5 6 7 8 9 10 11 12 13 14 15 16 17 18 19 20 21 22 23 24 25
000
FTUS41 KILN 271804 RRA
TAFCMH
TAF
KCMH 271804Z 2718/2818 20005KT P6SM -SHRA SCT015 BKN040
      TEMPO 2718/2722 4SM SHRA BKN015
     FM272300 21004KT P6SM VCSH OVC040
     FM280300 15004KT P6SM VCSH BKN040
     FM280700 07004KT 5SM BR VCSH OVC013
     FM281200 05005KT 5SM BR OVC007
     FM281600 03007KT 5SM -SHRA OVC018=

USA.gov is the U.S. government's official web portal to all federal, state and local government web resources and services.